sensor_id;sensor_type;location;lat;lon;timestamp;P1;durP1;ratioP1;P2;durP2;ratioP2
31760;SDS011;18335;51.486;7.562;2022-08-01T00:01:35;28.70;;;22.30;;
31760;SDS011;18335;51.486;7.562;2022-08-01T00:04:02;27.17;;;21.13;;
31760;SDS011;18335;51.486;7.562;2022-08-01T00:06:29;23.48;;;20.95;;
31760;SDS011;18335;51.486;7.562;2022-08-01T00:08:57;25.98;;;22.63;;
31760;SDS011;18335;51.486;7.562;2022-08-01T00:11:23;26.85;;;23.35;;
31760;SDS011;18335;51.486;7.562;2022-08-01T00:13:50;25.85;;;22.77;;
31760;SDS011;18335;51.486;7.562;2022-08-01T00:16:17;29.23;;;25.05;;
31760;SDS011;18335;51.486;7.562;2022-08-01T00:18:45;28.23;;;22.38;;
31760;SDS011;18335;51.486;7.562;2022-08-01T00:21:11;27.80;;;23.63;;
31760;SDS011;18335;51.486;7.562;2022-08-01T00:23:38;26.80;;;23.77;;
31760;SDS011;18335;51.486;7.562;2022-08-01T00:26:05;27.98;;;23.10;;
31760;SDS011;18335;51.486;7.562;2022-08-01T00:28:31;28.70;;;23.20;;
31760;SDS011;18335;51.486;7.562;2022-08-01T00:30:58;27.58;;;24.40;;
31760;SDS011;18335;51.486;7.562;2022-08-01T00:33:26;29.05;;;23.05;;
31760;SDS011;18335;51.486;7.562;2022-08-01T00:35:54;29.33;;;24.20;;
31760;SDS011;18335;51.486;7.562;2022-08-01T00:38:21;30.77;;;25.27;;
31760;SDS011;18335;51.486;7.562;2022-08-01T00:40:48;28.50;;;24.75;;
31760;SDS011;18335;51.486;7.562;2022-08-01T00:43:15;27.00;;;22.13;;
31760;SDS011;18335;51.486;7.562;2022-08-01T00:45:41;25.58;;;22.58;;
31760;SDS011;18335;51.486;7.562;2022-08-01T00:48:08;26.52;;;22.67;;
31760;SDS011;18335;51.486;7.562;2022-08-01T00:50:35;24.95;;;22.25;;
31760;SDS011;18335;51.486;7.562;2022-08-01T00:53:03;26.65;;;21.63;;
31760;SDS011;18335;51.486;7.562;2022-08-01T00:55:30;26.48;;;21.40;;
31760;SDS011;18335;51.486;7.562;2022-08-01T00:57:58;27.33;;;20.25;;
31760;SDS011;18335;51.486;7.562;2022-08-01T01:00:25;23.23;;;20.80;;
31760;SDS011;18335;51.486;7.562;2022-08-01T01:02:52;23.00;;;19.13;;
31760;SDS011;18335;51.486;7.562;2022-08-01T01:05:19;25.83;;;20.15;;
31760;SDS011;18335;51.486;7.562;2022-08-01T01:07:48;23.77;;;20.27;;
31760;SDS011;18335;51.486;7.562;2022-08-01T01:10:28;25.98;;;21.17;;
31760;SDS011;18335;51.486;7.562;2022-08-01T01:12:59;26.88;;;20.88;;
31760;SDS011;18335;51.486;7.562;2022-08-01T01:15:33;27.33;;;22.48;;
31760;SDS011;18335;51.486;7.562;2022-08-01T01:18:07;26.15;;;23.35;;
31760;SDS011;18335;51.486;7.562;2022-08-01T01:20:37;26.65;;;22.65;;
31760;SDS011;18335;51.486;7.562;2022-08-01T01:23:15;30.05;;;25.50;;
31760;SDS011;18335;51.486;7.562;2022-08-01T01:25:53;30.70;;;24.73;;
31760;SDS011;18335;51.486;7.562;2022-08-01T01:28:33;29.38;;;25.23;;
31760;SDS011;18335;51.486;7.562;2022-08-01T01:33:37;27.58;;;23.83;;
31760;SDS011;18335;51.486;7.562;2022-08-01T01:36:08;29.58;;;26.38;;
31760;SDS011;18335;51.486;7.562;2022-08-01T01:38:36;30.88;;;25.40;;
31760;SDS011;18335;51.486;7.562;2022-08-01T01:41:08;32.85;;;27.15;;
31760;SDS011;18335;51.486;7.562;2022-08-01T01:43:37;29.80;;;25.05;;
31760;SDS011;18335;51.486;7.562;2022-08-01T01:46:06;30.40;;;27.13;;
31760;SDS011;18335;51.486;7.562;2022-08-01T01:48:36;33.42;;;27.33;;
31760;SDS011;18335;51.486;7.562;2022-08-01T01:51:06;37.78;;;31.27;;
31760;SDS011;18335;51.486;7.562;2022-08-01T01:53:33;36.28;;;31.15;;
31760;SDS011;18335;51.486;7.562;2022-08-01T01:56:02;36.25;;;32.35;;
31760;SDS011;18335;51.486;7.562;2022-08-01T01:58:30;37.83;;;31.80;;
31760;SDS011;18335;51.486;7.562;2022-08-01T02:00:59;38.17;;;32.97;;
31760;SDS011;18335;51.486;7.562;2022-08-01T02:03:30;41.22;;;34.83;;
31760;SDS011;18335;51.486;7.562;2022-08-01T02:05:57;50.40;;;36.55;;
31760;SDS011;18335;51.486;7.562;2022-08-01T02:08:26;42.50;;;35.25;;
31760;SDS011;18335;51.486;7.562;2022-08-01T02:10:56;42.35;;;34.85;;
31760;SDS011;18335;51.486;7.562;2022-08-01T02:13:42;38.78;;;33.92;;
31760;SDS011;18335;51.486;7.562;2022-08-01T02:16:09;43.05;;;36.67;;
31760;SDS011;18335;51.486;7.562;2022-08-01T02:18:38;44.50;;;35.80;;
31760;SDS011;18335;51.486;7.562;2022-08-01T02:21:05;42.30;;;36.13;;
31760;SDS011;18335;51.486;7.562;2022-08-01T02:23:37;40.17;;;32.83;;
31760;SDS011;18335;51.486;7.562;2022-08-01T02:26:06;37.45;;;33.33;;
31760;SDS011;18335;51.486;7.562;2022-08-01T02:28:37;36.35;;;31.80;;
31760;SDS011;18335;51.486;7.562;2022-08-01T02:31:08;37.03;;;30.67;;
31760;SDS011;18335;51.486;7.562;2022-08-01T02:33:42;36.10;;;30.73;;
31760;SDS011;18335;51.486;7.562;2022-08-01T02:36:12;33.33;;;28.40;;
31760;SDS011;18335;51.486;7.562;2022-08-01T02:38:40;34.70;;;28.63;;
31760;SDS011;18335;51.486;7.562;2022-08-01T02:41:10;32.33;;;28.38;;
31760;SDS011;18335;51.486;7.562;2022-08-01T02:43:42;35.42;;;28.15;;
31760;SDS011;18335;51.486;7.562;2022-08-01T02:46:13;34.28;;;26.98;;
31760;SDS011;18335;51.486;7.562;2022-08-01T02:48:45;33.88;;;27.15;;
31760;SDS011;18335;51.486;7.562;2022-08-01T02:51:14;33.25;;;27.45;;
31760;SDS011;18335;51.486;7.562;2022-08-01T02:53:42;31.98;;;27.85;;
31760;SDS011;18335;51.486;7.562;2022-08-01T02:56:12;34.13;;;28.48;;
31760;SDS011;18335;51.486;7.562;2022-08-01T02:58:41;37.28;;;29.50;;
31760;SDS011;18335;51.486;7.562;2022-08-01T03:01:09;37.63;;;31.00;;
31760;SDS011;18335;51.486;7.562;2022-08-01T03:03:37;34.17;;;28.95;;
31760;SDS011;18335;51.486;7.562;2022-08-01T03:06:06;35.47;;;29.25;;
31760;SDS011;18335;51.486;7.562;2022-08-01T03:08:33;34.45;;;30.33;;
31760;SDS011;18335;51.486;7.562;2022-08-01T03:11:02;35.97;;;30.70;;
31760;SDS011;18335;51.486;7.562;2022-08-01T03:13:30;37.00;;;29.77;;
31760;SDS011;18335;51.486;7.562;2022-08-01T03:15:58;36.42;;;30.35;;
31760;SDS011;18335;51.486;7.562;2022-08-01T03:18:27;40.28;;;30.63;;
31760;SDS011;18335;51.486;7.562;2022-08-01T03:20:55;33.58;;;29.50;;
31760;SDS011;18335;51.486;7.562;2022-08-01T03:23:24;36.78;;;30.85;;
31760;SDS011;18335;51.486;7.562;2022-08-01T03:25:54;36.10;;;31.30;;
31760;SDS011;18335;51.486;7.562;2022-08-01T03:28:21;38.13;;;29.67;;
31760;SDS011;18335;51.486;7.562;2022-08-01T03:30:49;34.40;;;28.05;;
31760;SDS011;18335;51.486;7.562;2022-08-01T03:33:17;28.92;;;22.90;;
31760;SDS011;18335;51.486;7.562;2022-08-01T03:35:45;23.92;;;18.30;;
31760;SDS011;18335;51.486;7.562;2022-08-01T03:38:14;23.80;;;17.60;;
31760;SDS011;18335;51.486;7.562;2022-08-01T03:40:47;22.30;;;16.45;;
31760;SDS011;18335;51.486;7.562;2022-08-01T03:43:19;23.00;;;17.65;;
31760;SDS011;18335;51.486;7.562;2022-08-01T03:45:53;20.63;;;15.13;;
31760;SDS011;18335;51.486;7.562;2022-08-01T03:48:22;19.48;;;13.98;;
31760;SDS011;18335;51.486;7.562;2022-08-01T03:50:55;19.08;;;12.65;;
31760;SDS011;18335;51.486;7.562;2022-08-01T03:53:24;18.90;;;12.88;;
31760;SDS011;18335;51.486;7.562;2022-08-01T03:55:56;20.27;;;13.82;;
31760;SDS011;18335;51.486;7.562;2022-08-01T03:58:26;19.55;;;13.88;;
31760;SDS011;18335;51.486;7.562;2022-08-01T04:00:54;18.80;;;15.35;;
31760;SDS011;18335;51.486;7.562;2022-08-01T04:03:21;18.67;;;14.75;;
31760;SDS011;18335;51.486;7.562;2022-08-01T04:05:48;18.27;;;14.10;;
31760;SDS011;18335;51.486;7.562;2022-08-01T04:08:15;19.50;;;14.82;;
31760;SDS011;18335;51.486;7.562;2022-08-01T04:10:42;19.10;;;14.57;;
31760;SDS011;18335;51.486;7.562;2022-08-01T04:13:10;20.35;;;16.33;;
31760;SDS011;18335;51.486;7.562;2022-08-01T04:15:37;21.48;;;15.68;;
31760;SDS011;18335;51.486;7.562;2022-08-01T04:18:04;23.13;;;17.30;;
31760;SDS011;18335;51.486;7.562;2022-08-01T04:20:31;24.23;;;16.92;;
31760;SDS011;18335;51.486;7.562;2022-08-01T04:22:58;18.08;;;14.60;;
31760;SDS011;18335;51.486;7.562;2022-08-01T04:25:26;21.58;;;15.18;;
31760;SDS011;18335;51.486;7.562;2022-08-01T04:27:56;23.88;;;17.25;;
31760;SDS011;18335;51.486;7.562;2022-08-01T04:30:26;21.35;;;15.95;;
31760;SDS011;18335;51.486;7.562;2022-08-01T04:32:56;22.67;;;15.50;;
31760;SDS011;18335;51.486;7.562;2022-08-01T04:35:26;20.98;;;15.85;;
31760;SDS011;18335;51.486;7.562;2022-08-01T04:37:55;21.17;;;15.40;;
31760;SDS011;18335;51.486;7.562;2022-08-01T04:40:23;21.70;;;15.18;;
31760;SDS011;18335;51.486;7.562;2022-08-01T04:42:51;21.35;;;15.32;;
31760;SDS011;18335;51.486;7.562;2022-08-01T04:45:18;21.48;;;15.15;;
31760;SDS011;18335;51.486;7.562;2022-08-01T04:47:46;24.42;;;16.13;;
31760;SDS011;18335;51.486;7.562;2022-08-01T04:50:14;19.55;;;15.52;;
31760;SDS011;18335;51.486;7.562;2022-08-01T04:52:41;36.42;;;16.98;;
31760;SDS011;18335;51.486;7.562;2022-08-01T04:55:08;21.58;;;15.18;;
31760;SDS011;18335;51.486;7.562;2022-08-01T04:57:36;24.25;;;15.70;;
31760;SDS011;18335;51.486;7.562;2022-08-01T05:00:05;20.55;;;15.95;;
31760;SDS011;18335;51.486;7.562;2022-08-01T05:02:33;20.10;;;15.48;;
31760;SDS011;18335;51.486;7.562;2022-08-01T05:05:01;21.35;;;15.68;;
31760;SDS011;18335;51.486;7.562;2022-08-01T05:07:28;19.77;;;15.40;;
31760;SDS011;18335;51.486;7.562;2022-08-01T05:09:54;23.50;;;16.23;;
31760;SDS011;18335;51.486;7.562;2022-08-01T05:12:21;22.58;;;15.75;;
31760;SDS011;18335;51.486;7.562;2022-08-01T05:14:48;20.67;;;14.82;;
31760;SDS011;18335;51.486;7.562;2022-08-01T05:17:14;21.60;;;15.20;;
31760;SDS011;18335;51.486;7.562;2022-08-01T05:19:41;23.10;;;15.82;;
31760;SDS011;18335;51.486;7.562;2022-08-01T05:22:10;20.90;;;14.43;;
31760;SDS011;18335;51.486;7.562;2022-08-01T05:24:37;25.35;;;15.45;;
31760;SDS011;18335;51.486;7.562;2022-08-01T05:27:05;19.48;;;13.60;;
31760;SDS011;18335;51.486;7.562;2022-08-01T05:29:33;17.33;;;13.75;;
31760;SDS011;18335;51.486;7.562;2022-08-01T05:32:00;19.02;;;13.00;;
31760;SDS011;18335;51.486;7.562;2022-08-01T05:34:27;21.50;;;14.93;;
31760;SDS011;18335;51.486;7.562;2022-08-01T05:36:54;22.65;;;15.80;;
31760;SDS011;18335;51.486;7.562;2022-08-01T05:39:22;23.08;;;15.10;;
31760;SDS011;18335;51.486;7.562;2022-08-01T05:41:49;20.98;;;13.85;;
31760;SDS011;18335;51.486;7.562;2022-08-01T05:44:15;20.60;;;14.02;;
31760;SDS011;18335;51.486;7.562;2022-08-01T05:46:42;21.95;;;13.85;;
31760;SDS011;18335;51.486;7.562;2022-08-01T05:49:09;20.25;;;14.23;;
31760;SDS011;18335;51.486;7.562;2022-08-01T05:51:35;20.02;;;13.82;;
31760;SDS011;18335;51.486;7.562;2022-08-01T05:54:02;20.85;;;14.80;;
31760;SDS011;18335;51.486;7.562;2022-08-01T05:56:31;18.85;;;13.10;;
31760;SDS011;18335;51.486;7.562;2022-08-01T05:58:58;19.63;;;14.40;;
31760;SDS011;18335;51.486;7.562;2022-08-01T06:01:25;20.15;;;12.75;;
31760;SDS011;18335;51.486;7.562;2022-08-01T06:03:51;18.42;;;13.07;;
31760;SDS011;18335;51.486;7.562;2022-08-01T06:06:19;17.58;;;12.88;;
31760;SDS011;18335;51.486;7.562;2022-08-01T06:08:46;17.20;;;12.38;;
31760;SDS011;18335;51.486;7.562;2022-08-01T06:11:12;18.02;;;13.32;;
31760;SDS011;18335;51.486;7.562;2022-08-01T06:13:41;17.10;;;12.98;;
31760;SDS011;18335;51.486;7.562;2022-08-01T06:16:07;18.40;;;13.90;;
31760;SDS011;18335;51.486;7.562;2022-08-01T06:18:34;19.65;;;14.35;;
31760;SDS011;18335;51.486;7.562;2022-08-01T06:21:01;20.08;;;14.73;;
31760;SDS011;18335;51.486;7.562;2022-08-01T06:23:27;23.15;;;15.55;;
31760;SDS011;18335;51.486;7.562;2022-08-01T06:25:54;19.58;;;14.00;;
31760;SDS011;18335;51.486;7.562;2022-08-01T06:28:21;17.60;;;13.93;;
31760;SDS011;18335;51.486;7.562;2022-08-01T06:30:49;17.25;;;12.73;;
31760;SDS011;18335;51.486;7.562;2022-08-01T06:33:16;16.65;;;12.43;;
31760;SDS011;18335;51.486;7.562;2022-08-01T06:35:42;17.80;;;12.57;;
31760;SDS011;18335;51.486;7.562;2022-08-01T06:38:09;16.95;;;11.95;;
31760;SDS011;18335;51.486;7.562;2022-08-01T06:40:36;15.73;;;10.77;;
31760;SDS011;18335;51.486;7.562;2022-08-01T06:43:03;16.38;;;10.57;;
31760;SDS011;18335;51.486;7.562;2022-08-01T06:45:30;15.45;;;9.68;;
31760;SDS011;18335;51.486;7.562;2022-08-01T06:47:58;20.02;;;10.55;;
31760;SDS011;18335;51.486;7.562;2022-08-01T06:50:24;19.50;;;11.32;;
31760;SDS011;18335;51.486;7.562;2022-08-01T06:52:51;16.83;;;11.75;;
31760;SDS011;18335;51.486;7.562;2022-08-01T06:55:18;20.25;;;11.00;;
31760;SDS011;18335;51.486;7.562;2022-08-01T06:57:46;18.20;;;11.27;;
31760;SDS011;18335;51.486;7.562;2022-08-01T07:00:14;16.38;;;11.05;;
31760;SDS011;18335;51.486;7.562;2022-08-01T07:02:44;18.92;;;11.68;;
31760;SDS011;18335;51.486;7.562;2022-08-01T07:05:12;16.95;;;11.52;;
31760;SDS011;18335;51.486;7.562;2022-08-01T07:07:39;16.33;;;9.80;;
31760;SDS011;18335;51.486;7.562;2022-08-01T07:10:06;15.98;;;10.48;;
31760;SDS011;18335;51.486;7.562;2022-08-01T07:12:34;15.77;;;10.77;;
31760;SDS011;18335;51.486;7.562;2022-08-01T07:15:02;17.10;;;10.77;;
31760;SDS011;18335;51.486;7.562;2022-08-01T07:17:29;16.10;;;11.13;;
31760;SDS011;18335;51.486;7.562;2022-08-01T07:19:56;17.90;;;11.40;;
31760;SDS011;18335;51.486;7.562;2022-08-01T07:22:24;16.75;;;10.90;;
31760;SDS011;18335;51.486;7.562;2022-08-01T07:24:50;17.25;;;10.63;;
31760;SDS011;18335;51.486;7.562;2022-08-01T07:27:17;15.10;;;11.00;;
31760;SDS011;18335;51.486;7.562;2022-08-01T07:29:44;14.38;;;10.50;;
31760;SDS011;18335;51.486;7.562;2022-08-01T07:32:11;12.93;;;9.00;;
31760;SDS011;18335;51.486;7.562;2022-08-01T07:34:37;14.38;;;10.18;;
31760;SDS011;18335;51.486;7.562;2022-08-01T07:37:04;13.57;;;8.77;;
31760;SDS011;18335;51.486;7.562;2022-08-01T07:39:32;13.77;;;9.50;;
31760;SDS011;18335;51.486;7.562;2022-08-01T07:41:59;14.43;;;9.93;;
31760;SDS011;18335;51.486;7.562;2022-08-01T07:44:26;13.95;;;9.85;;
31760;SDS011;18335;51.486;7.562;2022-08-01T07:46:52;15.18;;;10.00;;
31760;SDS011;18335;51.486;7.562;2022-08-01T07:49:19;15.48;;;10.00;;
31760;SDS011;18335;51.486;7.562;2022-08-01T07:51:46;16.65;;;10.05;;
31760;SDS011;18335;51.486;7.562;2022-08-01T07:54:13;17.80;;;12.15;;
31760;SDS011;18335;51.486;7.562;2022-08-01T07:56:41;16.25;;;11.13;;
31760;SDS011;18335;51.486;7.562;2022-08-01T07:59:08;16.67;;;11.75;;
31760;SDS011;18335;51.486;7.562;2022-08-01T08:01:35;14.38;;;11.20;;
31760;SDS011;18335;51.486;7.562;2022-08-01T08:04:01;17.48;;;12.00;;
31760;SDS011;18335;51.486;7.562;2022-08-01T08:06:28;15.10;;;11.85;;
31760;SDS011;18335;51.486;7.562;2022-08-01T08:08:55;15.30;;;10.85;;
31760;SDS011;18335;51.486;7.562;2022-08-01T08:11:21;14.40;;;9.43;;
31760;SDS011;18335;51.486;7.562;2022-08-01T08:13:49;15.20;;;10.13;;
31760;SDS011;18335;51.486;7.562;2022-08-01T08:16:16;13.00;;;8.93;;
31760;SDS011;18335;51.486;7.562;2022-08-01T08:18:43;15.50;;;8.80;;
31760;SDS011;18335;51.486;7.562;2022-08-01T08:21:09;13.32;;;7.75;;
31760;SDS011;18335;51.486;7.562;2022-08-01T08:23:36;10.07;;;6.90;;
31760;SDS011;18335;51.486;7.562;2022-08-01T08:26:20;12.63;;;8.00;;
31760;SDS011;18335;51.486;7.562;2022-08-01T08:28:50;12.52;;;7.93;;
31760;SDS011;18335;51.486;7.562;2022-08-01T08:31:16;13.95;;;7.90;;
31760;SDS011;18335;51.486;7.562;2022-08-01T08:33:43;12.00;;;7.80;;
31760;SDS011;18335;51.486;7.562;2022-08-01T08:36:10;12.85;;;8.70;;
31760;SDS011;18335;51.486;7.562;2022-08-01T08:38:37;11.38;;;7.38;;
31760;SDS011;18335;51.486;7.562;2022-08-01T08:41:04;10.90;;;7.35;;
31760;SDS011;18335;51.486;7.562;2022-08-01T08:43:31;11.93;;;7.18;;
31760;SDS011;18335;51.486;7.562;2022-08-01T08:45:59;10.80;;;6.85;;
31760;SDS011;18335;51.486;7.562;2022-08-01T08:48:26;10.55;;;6.97;;
31760;SDS011;18335;51.486;7.562;2022-08-01T08:50:53;10.45;;;7.65;;
31760;SDS011;18335;51.486;7.562;2022-08-01T08:53:21;10.38;;;5.93;;
31760;SDS011;18335;51.486;7.562;2022-08-01T08:55:48;10.57;;;6.07;;
31760;SDS011;18335;51.486;7.562;2022-08-01T08:58:17;9.18;;;5.20;;
31760;SDS011;18335;51.486;7.562;2022-08-01T09:00:45;9.57;;;6.05;;
31760;SDS011;18335;51.486;7.562;2022-08-01T09:03:13;9.02;;;5.22;;
31760;SDS011;18335;51.486;7.562;2022-08-01T09:05:40;9.35;;;4.22;;
31760;SDS011;18335;51.486;7.562;2022-08-01T09:08:08;8.70;;;5.47;;
31760;SDS011;18335;51.486;7.562;2022-08-01T09:10:35;12.52;;;4.55;;
31760;SDS011;18335;51.486;7.562;2022-08-01T09:13:02;10.63;;;5.60;;
31760;SDS011;18335;51.486;7.562;2022-08-01T09:15:40;10.40;;;4.45;;
31760;SDS011;18335;51.486;7.562;2022-08-01T09:18:08;8.32;;;3.92;;
31760;SDS011;18335;51.486;7.562;2022-08-01T09:20:53;9.55;;;4.47;;
31760;SDS011;18335;51.486;7.562;2022-08-01T09:23:34;7.63;;;3.95;;
31760;SDS011;18335;51.486;7.562;2022-08-01T09:26:05;10.02;;;4.45;;
31760;SDS011;18335;51.486;7.562;2022-08-01T09:28:32;6.85;;;4.00;;
31760;SDS011;18335;51.486;7.562;2022-08-01T09:30:59;6.32;;;3.15;;
31760;SDS011;18335;51.486;7.562;2022-08-01T09:33:46;6.68;;;3.10;;
31760;SDS011;18335;51.486;7.562;2022-08-01T09:36:15;5.68;;;2.50;;
31760;SDS011;18335;51.486;7.562;2022-08-01T09:38:42;4.15;;;2.10;;
31760;SDS011;18335;51.486;7.562;2022-08-01T09:41:09;4.68;;;2.30;;
31760;SDS011;18335;51.486;7.562;2022-08-01T09:43:37;5.25;;;2.80;;
31760;SDS011;18335;51.486;7.562;2022-08-01T09:46:04;4.20;;;2.13;;
31760;SDS011;18335;51.486;7.562;2022-08-01T09:48:34;4.55;;;2.42;;
31760;SDS011;18335;51.486;7.562;2022-08-01T09:51:04;3.95;;;2.17;;
31760;SDS011;18335;51.486;7.562;2022-08-01T09:56:18;6.07;;;2.50;;
31760;SDS011;18335;51.486;7.562;2022-08-01T09:58:50;5.20;;;2.60;;
31760;SDS011;18335;51.486;7.562;2022-08-01T10:01:21;5.65;;;2.38;;
31760;SDS011;18335;51.486;7.562;2022-08-01T10:04:03;5.65;;;2.60;;
31760;SDS011;18335;51.486;7.562;2022-08-01T10:06:31;4.55;;;2.63;;
31760;SDS011;18335;51.486;7.562;2022-08-01T10:08:59;5.38;;;2.40;;
31760;SDS011;18335;51.486;7.562;2022-08-01T10:11:26;5.25;;;2.65;;
31760;SDS011;18335;51.486;7.562;2022-08-01T10:13:56;5.80;;;2.50;;
31760;SDS011;18335;51.486;7.562;2022-08-01T10:16:25;6.63;;;2.15;;
31760;SDS011;18335;51.486;7.562;2022-08-01T10:18:53;4.93;;;2.15;;
31760;SDS011;18335;51.486;7.562;2022-08-01T10:21:20;5.55;;;2.40;;
31760;SDS011;18335;51.486;7.562;2022-08-01T10:23:51;4.57;;;1.90;;
31760;SDS011;18335;51.486;7.562;2022-08-01T10:26:21;5.93;;;2.08;;
31760;SDS011;18335;51.486;7.562;2022-08-01T10:28:51;4.07;;;1.73;;
31760;SDS011;18335;51.486;7.562;2022-08-01T10:31:20;5.85;;;1.98;;
31760;SDS011;18335;51.486;7.562;2022-08-01T10:33:47;2.08;;;1.52;;
31760;SDS011;18335;51.486;7.562;2022-08-01T10:36:15;4.03;;;1.63;;
31760;SDS011;18335;51.486;7.562;2022-08-01T10:38:45;2.60;;;1.40;;
31760;SDS011;18335;51.486;7.562;2022-08-01T10:41:12;23.00;;;3.67;;
31760;SDS011;18335;51.486;7.562;2022-08-01T10:43:42;8.02;;;2.35;;
31760;SDS011;18335;51.486;7.562;2022-08-01T10:46:09;4.82;;;1.65;;
31760;SDS011;18335;51.486;7.562;2022-08-01T10:48:39;7.35;;;2.13;;
31760;SDS011;18335;51.486;7.562;2022-08-01T10:51:11;7.82;;;1.70;;
31760;SDS011;18335;51.486;7.562;2022-08-01T10:53:45;3.83;;;1.70;;
31760;SDS011;18335;51.486;7.562;2022-08-01T10:56:13;3.67;;;1.42;;
31760;SDS011;18335;51.486;7.562;2022-08-01T10:58:44;3.92;;;1.35;;
31760;SDS011;18335;51.486;7.562;2022-08-01T11:01:20;7.85;;;2.55;;
31760;SDS011;18335;51.486;7.562;2022-08-01T11:04:02;4.18;;;1.20;;
31760;SDS011;18335;51.486;7.562;2022-08-01T11:06:36;2.03;;;1.17;;
31760;SDS011;18335;51.486;7.562;2022-08-01T11:09:26;2.40;;;1.30;;
31760;SDS011;18335;51.486;7.562;2022-08-01T11:12:00;88.28;;;12.40;;
31760;SDS011;18335;51.486;7.562;2022-08-01T11:14:32;10.35;;;2.67;;
31760;SDS011;18335;51.486;7.562;2022-08-01T11:20:08;2.67;;;1.17;;
31760;SDS011;18335;51.486;7.562;2022-08-01T11:28:34;4.38;;;1.60;;
31760;SDS011;18335;51.486;7.562;2022-08-01T11:33:54;3.60;;;1.30;;
31760;SDS011;18335;51.486;7.562;2022-08-01T11:36:20;2.83;;;1.58;;
31760;SDS011;18335;51.486;7.562;2022-08-01T11:38:49;2.08;;;1.20;;
31760;SDS011;18335;51.486;7.562;2022-08-01T11:41:37;2.30;;;1.35;;
31760;SDS011;18335;51.486;7.562;2022-08-01T11:44:05;2.88;;;1.40;;
31760;SDS011;18335;51.486;7.562;2022-08-01T11:46:46;2.90;;;1.40;;
31760;SDS011;18335;51.486;7.562;2022-08-01T11:49:27;2.03;;;1.52;;
31760;SDS011;18335;51.486;7.562;2022-08-01T11:52:01;4.35;;;1.48;;
31760;SDS011;18335;51.486;7.562;2022-08-01T11:54:30;2.20;;;1.40;;
31760;SDS011;18335;51.486;7.562;2022-08-01T11:56:59;1.90;;;1.10;;
31760;SDS011;18335;51.486;7.562;2022-08-01T11:59:27;1.77;;;1.25;;
31760;SDS011;18335;51.486;7.562;2022-08-01T12:01:55;1.85;;;0.88;;
31760;SDS011;18335;51.486;7.562;2022-08-01T12:04:22;2.47;;;0.68;;
31760;SDS011;18335;51.486;7.562;2022-08-01T12:06:49;2.33;;;0.90;;
31760;SDS011;18335;51.486;7.562;2022-08-01T12:09:19;2.03;;;0.93;;
31760;SDS011;18335;51.486;7.562;2022-08-01T12:11:47;0.82;;;0.60;;
31760;SDS011;18335;51.486;7.562;2022-08-01T12:14:20;2.05;;;0.93;;
31760;SDS011;18335;51.486;7.562;2022-08-01T12:16:48;1.42;;;0.63;;
31760;SDS011;18335;51.486;7.562;2022-08-01T12:19:19;2.13;;;0.65;;
31760;SDS011;18335;51.486;7.562;2022-08-01T12:24:35;0.80;;;0.57;;
31760;SDS011;18335;51.486;7.562;2022-08-01T12:27:03;2.72;;;0.70;;
31760;SDS011;18335;51.486;7.562;2022-08-01T12:29:31;1.52;;;0.60;;
31760;SDS011;18335;51.486;7.562;2022-08-01T12:32:02;3.65;;;0.90;;
31760;SDS011;18335;51.486;7.562;2022-08-01T12:34:30;1.70;;;1.00;;
31760;SDS011;18335;51.486;7.562;2022-08-01T12:37:00;1.92;;;1.15;;
31760;SDS011;18335;51.486;7.562;2022-08-01T12:39:33;1.40;;;0.80;;
31760;SDS011;18335;51.486;7.562;2022-08-01T12:42:01;1.23;;;0.93;;
31760;SDS011;18335;51.486;7.562;2022-08-01T12:44:27;1.15;;;0.77;;
31760;SDS011;18335;51.486;7.562;2022-08-01T12:46:57;1.10;;;1.00;;
31760;SDS011;18335;51.486;7.562;2022-08-01T12:49:24;2.05;;;0.90;;
31760;SDS011;18335;51.486;7.562;2022-08-01T12:51:52;1.75;;;1.00;;
31760;SDS011;18335;51.486;7.562;2022-08-01T12:54:21;3.90;;;0.80;;
31760;SDS011;18335;51.486;7.562;2022-08-01T12:56:50;0.50;;;0.47;;
31760;SDS011;18335;51.486;7.562;2022-08-01T12:59:22;0.82;;;0.70;;
31760;SDS011;18335;51.486;7.562;2022-08-01T13:01:52;1.65;;;0.80;;
31760;SDS011;18335;51.486;7.562;2022-08-01T13:04:19;1.67;;;0.65;;
31760;SDS011;18335;51.486;7.562;2022-08-01T13:06:46;1.05;;;0.93;;
31760;SDS011;18335;51.486;7.562;2022-08-01T13:09:15;1.40;;;1.00;;
31760;SDS011;18335;51.486;7.562;2022-08-01T13:11:42;2.72;;;0.85;;
31760;SDS011;18335;51.486;7.562;2022-08-01T13:14:11;1.73;;;1.00;;
31760;SDS011;18335;51.486;7.562;2022-08-01T13:16:53;1.48;;;0.90;;
31760;SDS011;18335;51.486;7.562;2022-08-01T13:19:20;1.25;;;0.80;;
31760;SDS011;18335;51.486;7.562;2022-08-01T13:21:53;0.65;;;0.63;;
31760;SDS011;18335;51.486;7.562;2022-08-01T13:24:27;1.98;;;1.00;;
31760;SDS011;18335;51.486;7.562;2022-08-01T13:26:55;1.40;;;0.88;;
31760;SDS011;18335;51.486;7.562;2022-08-01T13:29:31;2.47;;;0.55;;
31760;SDS011;18335;51.486;7.562;2022-08-01T13:31:59;0.93;;;0.82;;
31760;SDS011;18335;51.486;7.562;2022-08-01T13:34:30;4.20;;;0.98;;
31760;SDS011;18335;51.486;7.562;2022-08-01T13:36:58;2.75;;;0.93;;
31760;SDS011;18335;51.486;7.562;2022-08-01T13:39:28;1.70;;;0.90;;
31760;SDS011;18335;51.486;7.562;2022-08-01T13:42:10;1.90;;;0.68;;
31760;SDS011;18335;51.486;7.562;2022-08-01T13:44:38;1.95;;;1.20;;
31760;SDS011;18335;51.486;7.562;2022-08-01T13:47:05;2.40;;;0.80;;
31760;SDS011;18335;51.486;7.562;2022-08-01T13:49:32;2.42;;;0.80;;
31760;SDS011;18335;51.486;7.562;2022-08-01T13:51:59;1.27;;;0.70;;
31760;SDS011;18335;51.486;7.562;2022-08-01T13:54:30;2.17;;;0.88;;
31760;SDS011;18335;51.486;7.562;2022-08-01T13:56:56;2.70;;;1.20;;
31760;SDS011;18335;51.486;7.562;2022-08-01T13:59:23;2.28;;;0.90;;
31760;SDS011;18335;51.486;7.562;2022-08-01T14:01:50;1.45;;;0.70;;
31760;SDS011;18335;51.486;7.562;2022-08-01T14:04:17;1.25;;;0.77;;
31760;SDS011;18335;51.486;7.562;2022-08-01T14:06:44;1.83;;;0.93;;
31760;SDS011;18335;51.486;7.562;2022-08-01T14:09:10;1.52;;;0.80;;
31760;SDS011;18335;51.486;7.562;2022-08-01T14:11:39;1.10;;;0.70;;
31760;SDS011;18335;51.486;7.562;2022-08-01T14:14:06;2.03;;;1.05;;
31760;SDS011;18335;51.486;7.562;2022-08-01T14:16:32;3.05;;;1.13;;
31760;SDS011;18335;51.486;7.562;2022-08-01T14:18:59;3.10;;;1.10;;
31760;SDS011;18335;51.486;7.562;2022-08-01T14:21:26;1.20;;;0.95;;
31760;SDS011;18335;51.486;7.562;2022-08-01T14:23:52;3.70;;;1.30;;
31760;SDS011;18335;51.486;7.562;2022-08-01T14:26:19;2.80;;;1.20;;
31760;SDS011;18335;51.486;7.562;2022-08-01T14:28:47;3.47;;;1.80;;
31760;SDS011;18335;51.486;7.562;2022-08-01T14:31:14;3.28;;;1.50;;
31760;SDS011;18335;51.486;7.562;2022-08-01T14:33:41;3.53;;;1.48;;
31760;SDS011;18335;51.486;7.562;2022-08-01T14:36:08;3.03;;;1.50;;
31760;SDS011;18335;51.486;7.562;2022-08-01T14:38:35;3.65;;;1.60;;
31760;SDS011;18335;51.486;7.562;2022-08-01T14:41:02;4.60;;;2.15;;
31760;SDS011;18335;51.486;7.562;2022-08-01T14:43:28;4.57;;;1.52;;
31760;SDS011;18335;51.486;7.562;2022-08-01T14:45:58;2.63;;;1.65;;
31760;SDS011;18335;51.486;7.562;2022-08-01T14:48:25;3.00;;;1.58;;
31760;SDS011;18335;51.486;7.562;2022-08-01T14:50:51;4.78;;;1.55;;
31760;SDS011;18335;51.486;7.562;2022-08-01T14:53:18;3.40;;;1.83;;
31760;SDS011;18335;51.486;7.562;2022-08-01T14:55:45;2.88;;;1.35;;
31760;SDS011;18335;51.486;7.562;2022-08-01T14:58:12;2.83;;;1.30;;
31760;SDS011;18335;51.486;7.562;2022-08-01T15:00:39;3.85;;;1.50;;
31760;SDS011;18335;51.486;7.562;2022-08-01T15:03:07;2.83;;;1.30;;